Time;durP1;ratioP1;P1;durP2;ratioP2;P2;SDS_P1;SDS_P2;PMS_P1;PMS_P2;Temp;Humidity;BMP_temperature;BMP_pressure;BME280_temperature;BME280_humidity;BME280_pressure;Samples;Min_cycle;Max_cycle;Signal;HPM_P1;HPM_P2
2022/05/10 00:00:15;;;;;;;6.20;0.98;;;16.10;69.90;;;;;;5082147;28;20467;-77
2022/05/10 00:02:43;;;;;;;5.07;1.00;;;16.00;69.80;;;;;;5083537;28;20066;-76
2022/05/10 00:05:10;;;;;;;4.85;0.63;;;16.00;69.70;;;;;;5085321;28;20464;-73
2022/05/10 00:07:38;;;;;;;2.47;0.40;;;16.00;69.90;;;;;;5081147;28;20105;-77
2022/05/10 00:10:08;;;;;;;3.00;0.47;;;16.00;69.90;;;;;;5081815;28;20157;-76
2022/05/10 00:12:35;;;;;;;9.85;0.77;;;16.00;70.00;;;;;;5082981;28;20031;-76
2022/05/10 00:15:01;;;;;;;7.38;0.88;;;16.00;70.20;;;;;;5079939;28;20027;-74
2022/05/10 00:17:36;;;;;;;3.55;0.82;;;16.00;70.20;;;;;;5079626;28;20399;-76
2022/05/10 00:20:04;;;;;;;4.53;0.45;;;16.00;70.20;;;;;;5080276;28;20040;-69
2022/05/10 00:22:31;;;;;;;2.50;0.50;;;15.90;70.00;;;;;;5081482;28;20028;-76
2022/05/10 00:25:00;;;;;;;2.42;0.50;;;15.90;69.90;;;;;;5081582;28;20051;-73
2022/05/10 00:27:26;;;;;;;3.05;0.52;;;15.90;70.00;;;;;;5082536;28;20024;-77
2022/05/10 00:29:53;;;;;;;1.77;0.75;;;15.90;69.90;;;;;;5083054;28;20033;-78
2022/05/10 00:32:19;;;;;;;2.67;0.80;;;15.90;69.80;;;;;;5079735;28;20020;-76
2022/05/10 00:34:47;;;;;;;2.40;0.57;;;15.90;69.70;;;;;;5082319;28;20020;-77
2022/05/10 00:37:16;;;;;;;2.00;0.60;;;15.90;69.80;;;;;;5082275;28;20017;-73
2022/05/10 00:39:43;;;;;;;0.77;0.40;;;15.90;70.00;;;;;;5080960;28;20039;-77
2022/05/10 00:42:30;;;;;;;0.88;0.50;;;15.80;69.90;;;;;;5079160;28;20119;-78
2022/05/10 00:45:00;;;;;;;0.63;0.35;;;15.80;69.70;;;;;;5082704;28;20048;-77
2022/05/10 00:47:38;;;;;;;5.07;0.70;;;15.80;69.70;;;;;;5081177;28;20029;-77
2022/05/10 00:50:24;;;;;;;18.27;1.15;;;15.80;70.30;;;;;;5079805;28;20023;-77
2022/05/10 00:52:57;;;;;;;1.15;0.38;;;15.80;70.00;;;;;;5080420;28;20040;-74
2022/05/10 00:55:28;;;;;;;4.75;0.60;;;15.80;70.00;;;;;;5077577;28;20102;-74
2022/05/10 00:58:15;;;;;;;2.72;0.50;;;15.80;70.00;;;;;;5082516;28;20033;-75
2022/05/10 01:00:42;;;;;;;1.42;0.75;;;15.70;69.80;;;;;;5081949;28;20028;-76
2022/05/10 01:03:22;;;;;;;1.88;0.50;;;15.70;69.60;;;;;;5083558;28;20039;-76
2022/05/10 01:06:12;;;;;;;3.00;0.70;;;15.70;69.60;;;;;;5080767;28;20032;-72
2022/05/10 01:08:49;;;;;;;1.65;0.70;;;15.70;69.50;;;;;;5076873;28;20190;-70
2022/05/10 01:11:58;;;;;;;4.03;0.55;;;15.70;69.60;;;;;;5080329;28;20471;-75
2022/05/10 01:14:47;;;;;;;4.72;1.00;;;15.70;69.70;;;;;;5082772;28;20027;-76
2022/05/10 01:17:14;;;;;;;2.28;0.82;;;15.70;69.70;;;;;;5077427;28;20017;-72
2022/05/10 01:19:44;;;;;;;2.75;0.57;;;15.60;69.70;;;;;;5077721;28;20079;-72
2022/05/10 01:22:36;;;;;;;1.17;0.60;;;15.60;69.60;;;;;;5077102;28;20040;-73
2022/05/10 01:25:44;;;;;;;2.85;0.35;;;15.60;70.20;;;;;;5054644;28;20405;-75
2022/05/10 01:28:32;;;;;;;0.73;0.65;;;15.60;70.40;;;;;;5066109;28;20036;-75
2022/05/10 01:31:04;;;;;;;1.40;0.45;;;15.60;70.30;;;;;;5075087;28;20030;-76
2022/05/10 01:33:36;;;;;;;4.75;0.70;;;15.60;70.20;;;;;;5080392;28;20024;-72
2022/05/10 01:36:15;;;;;;;3.85;0.50;;;15.60;70.10;;;;;;5083550;28;20116;-74
2022/05/10 01:38:51;;;;;;;1.65;0.60;;;15.60;70.10;;;;;;5080539;28;20388;-69
2022/05/10 01:41:39;;;;;;;2.33;0.75;;;15.60;70.10;;;;;;5082696;28;20023;-74
2022/05/10 01:44:27;;;;;;;2.30;1.20;;;15.50;70.10;;;;;;5083247;28;20387;-73
2022/05/10 01:47:16;;;;;;;11.63;0.63;;;15.50;69.80;;;;;;5080360;28;20016;-68
2022/05/10 01:50:02;;;;;;;1.80;0.57;;;15.50;69.80;;;;;;5080537;28;20541;-73
2022/05/10 01:52:54;;;;;;;6.30;0.60;;;15.50;69.90;;;;;;5079795;28;20016;-72
2022/05/10 01:55:46;;;;;;;1.67;0.52;;;15.50;69.80;;;;;;5081078;28;20020;-74
2022/05/10 01:58:20;;;;;;;7.13;0.90;;;15.50;69.70;;;;;;5080999;28;20028;-71
2022/05/10 02:00:54;;;;;;;9.52;0.95;;;15.50;70.50;;;;;;5084259;28;20042;-74
2022/05/10 02:03:47;;;;;;;4.07;1.63;;;15.40;70.80;;;;;;5082899;28;20496;-75
2022/05/10 02:06:19;;;;;;;2.97;0.60;;;15.40;71.00;;;;;;5075342;28;20099;-75
2022/05/10 02:09:12;;;;;;;6.43;0.70;;;15.40;70.50;;;;;;5083098;28;20028;-75
2022/05/10 02:11:46;;;;;;;2.05;0.50;;;15.40;70.00;;;;;;5085202;28;20125;-74
2022/05/10 02:14:27;;;;;;;9.00;1.17;;;15.50;69.70;;;;;;5080393;28;20021;-73
2022/05/10 02:16:56;;;;;;;6.35;1.27;;;15.50;70.00;;;;;;5084616;28;20028;-75
2022/05/10 02:19:32;;;;;;;2.40;0.40;;;15.40;70.20;;;;;;5085388;28;20019;-76
2022/05/10 02:22:12;;;;;;;7.15;0.55;;;15.40;70.50;;;;;;5081217;28;20066;-74
2022/05/10 02:24:49;;;;;;;9.63;0.70;;;15.40;70.80;;;;;;5083496;28;20031;-76
2022/05/10 02:27:44;;;;;;;17.52;1.60;;;15.30;70.70;;;;;;5084486;28;20027;-76
2022/05/10 02:30:13;;;;;;;7.63;1.38;;;15.40;71.10;;;;;;5085971;28;20040;-71
2022/05/10 02:35:35;;;;;;;6.95;1.30;;;15.30;71.30;;;;;;5080773;28;20034;-74
2022/05/10 02:38:03;;;;;;;7.25;1.48;;;15.30;71.60;;;;;;5085222;28;20016;-75
2022/05/10 02:40:30;;;;;;;4.28;0.80;;;15.30;71.40;;;;;;5081673;28;20031;-71
2022/05/10 02:42:56;;;;;;;3.80;0.80;;;15.30;70.60;;;;;;5084097;28;20036;-75
2022/05/10 02:45:23;;;;;;;2.35;0.60;;;15.30;69.90;;;;;;5082988;28;20020;-76
2022/05/10 02:47:50;;;;;;;4.00;1.23;;;15.30;69.80;;;;;;5080782;28;20024;-74
2022/05/10 02:50:34;;;;;;;1.50;1.00;;;15.20;69.40;;;;;;5085719;28;20039;-73
2022/05/10 02:53:01;;;;;;;3.65;1.70;;;15.20;69.40;;;;;;5082073;28;20039;-74
2022/05/10 02:55:39;;;;;;;2.95;1.40;;;15.20;69.30;;;;;;5085615;28;20020;-74
2022/05/10 02:58:22;;;;;;;2.85;1.60;;;15.20;69.20;;;;;;5078993;28;20020;-74
2022/05/10 03:00:52;;;;;;;4.97;2.00;;;15.20;69.20;;;;;;5082386;28;20616;-74
2022/05/10 03:03:22;;;;;;;4.50;1.70;;;15.10;69.10;;;;;;5083711;28;20533;-73
2022/05/10 03:05:48;;;;;;;3.50;1.77;;;15.10;68.90;;;;;;5082478;28;20017;-74
2022/05/10 03:08:14;;;;;;;2.88;1.55;;;15.10;68.90;;;;;;5079646;28;20169;-72
2022/05/10 03:10:41;;;;;;;5.38;1.48;;;15.10;68.90;;;;;;5079480;28;20032;-74
2022/05/10 03:13:07;;;;;;;4.68;1.27;;;15.10;69.10;;;;;;5079885;28;20107;-73
2022/05/10 03:15:34;;;;;;;6.90;1.17;;;15.00;69.10;;;;;;5081175;28;20475;-72
2022/05/10 03:18:00;;;;;;;5.38;1.10;;;15.00;69.20;;;;;;5081548;28;20024;-72
2022/05/10 03:20:27;;;;;;;1.90;0.95;;;15.10;69.30;;;;;;5084959;28;20395;-75
2022/05/10 03:22:54;;;;;;;9.55;1.17;;;15.00;69.20;;;;;;5084690;28;20047;-75
2022/05/10 03:25:21;;;;;;;6.78;1.10;;;15.00;69.30;;;;;;5084110;28;20022;-76
2022/05/10 03:27:49;;;;;;;2.97;2.08;;;15.00;69.60;;;;;;5080202;28;20027;-74
2022/05/10 03:30:20;;;;;;;1.15;1.02;;;15.00;69.90;;;;;;5084399;28;20110;-72
2022/05/10 03:32:46;;;;;;;2.58;1.55;;;15.00;69.90;;;;;;5079239;28;20035;-76
2022/05/10 03:35:15;;;;;;;3.63;1.27;;;14.90;69.70;;;;;;5081976;28;20020;-73
2022/05/10 03:37:42;;;;;;;3.22;1.42;;;14.90;69.70;;;;;;5086416;28;20020;-72
2022/05/10 03:40:10;;;;;;;6.35;1.50;;;14.90;69.80;;;;;;5085296;28;20514;-72
2022/05/10 03:42:46;;;;;;;2.90;1.40;;;14.90;69.70;;;;;;5085242;28;20028;-74
2022/05/10 03:45:14;;;;;;;2.50;1.88;;;14.90;69.70;;;;;;5085520;28;20016;-74
2022/05/10 03:47:40;;;;;;;3.85;1.65;;;14.90;69.50;;;;;;5083326;28;20035;-72
2022/05/10 03:50:09;;;;;;;3.67;1.73;;;14.80;69.40;;;;;;5079419;28;20024;-74
2022/05/10 03:52:37;;;;;;;4.63;1.75;;;14.80;69.30;;;;;;5084508;28;20486;-75
2022/05/10 03:55:04;;;;;;;3.20;2.03;;;14.80;69.10;;;;;;5084380;28;20033;-72
2022/05/10 03:57:31;;;;;;;5.05;2.17;;;14.80;69.10;;;;;;5080950;28;20115;-71
2022/05/10 03:59:57;;;;;;;9.05;3.75;;;14.80;68.10;;;;;;5081446;28;20024;-71
2022/05/10 04:02:23;;;;;;;4.93;2.60;;;14.70;69.60;;;;;;5077312;28;20059;-72
2022/05/10 04:04:50;;;;;;;5.97;4.25;;;14.60;70.20;;;;;;5080042;28;20057;-77
2022/05/10 04:07:17;;;;;;;8.85;6.00;;;14.60;70.10;;;;;;5083338;28;20024;-75
2022/05/10 04:09:44;;;;;;;9.77;7.43;;;14.60;69.80;;;;;;5081900;28;20028;-70
2022/05/10 04:12:11;;;;;;;10.98;7.45;;;14.60;69.50;;;;;;5080248;28;20020;-74
2022/05/10 04:14:37;;;;;;;5.80;4.68;;;14.60;69.30;;;;;;5078304;28;20062;-68
2022/05/10 04:17:04;;;;;;;10.30;3.63;;;14.60;69.00;;;;;;5075385;28;20383;-66
2022/05/10 04:19:31;;;;;;;8.35;4.38;;;14.60;69.00;;;;;;5079074;28;20030;-72
2022/05/10 04:21:57;;;;;;;4.88;4.15;;;14.60;68.90;;;;;;5085331;28;20119;-70
2022/05/10 04:24:24;;;;;;;6.78;5.28;;;14.60;68.80;;;;;;5083960;28;20455;-72
2022/05/10 04:26:50;;;;;;;5.03;3.67;;;14.60;68.90;;;;;;5084898;28;20085;-76
2022/05/10 04:29:17;;;;;;;7.70;2.95;;;14.50;68.90;;;;;;5079835;28;20395;-75
2022/05/10 04:31:44;;;;;;;5.25;2.88;;;14.50;68.90;;;;;;5079878;28;20024;-68
2022/05/10 04:34:10;;;;;;;4.45;3.03;;;14.50;68.90;;;;;;5080390;28;20028;-67
2022/05/10 04:36:37;;;;;;;4.05;2.92;;;14.50;69.00;;;;;;5079075;28;20514;-70
2022/05/10 04:39:04;;;;;;;6.50;3.00;;;14.50;69.00;;;;;;5078657;28;20063;-68
2022/05/10 04:41:35;;;;;;;7.03;3.70;;;14.50;69.00;;;;;;5078609;28;20032;-69
2022/05/10 04:44:08;;;;;;;6.25;3.40;;;14.50;69.00;;;;;;5083707;28;20090;-70
2022/05/10 04:46:36;;;;;;;4.95;2.75;;;14.50;69.00;;;;;;5082296;28;20127;-66
2022/05/10 04:49:04;;;;;;;6.60;2.83;;;14.40;68.90;;;;;;5076798;28;20031;-66
2022/05/10 04:51:32;;;;;;;5.22;2.50;;;14.50;68.90;;;;;;5079701;28;20017;-68
2022/05/10 04:54:39;;;;;;;4.28;2.53;;;14.40;69.10;;;;;;5079221;28;20027;-66
2022/05/10 04:57:46;;;;;;;8.02;2.38;;;14.40;69.20;;;;;;5080416;28;20027;-67
2022/05/10 05:00:52;;;;;;;4.90;2.70;;;14.40;69.20;;;;;;5075964;28;20038;-66
2022/05/10 05:04:00;;;;;;;5.72;2.53;;;14.40;69.30;;;;;;5080209;28;20131;-67
2022/05/10 05:07:06;;;;;;;5.43;2.28;;;14.40;69.20;;;;;;5080439;28;20024;-68
2022/05/10 05:10:12;;;;;;;6.97;2.80;;;14.40;69.20;;;;;;5076714;28;20025;-67
2022/05/10 05:13:18;;;;;;;5.60;2.55;;;14.30;69.10;;;;;;5081420;28;20521;-66
2022/05/10 05:16:24;;;;;;;2.70;1.80;;;14.30;69.10;;;;;;5080203;28;20027;-66
2022/05/10 05:19:30;;;;;;;4.40;2.35;;;14.30;69.10;;;;;;5079782;28;20142;-66
2022/05/10 05:22:36;;;;;;;6.38;3.25;;;14.30;69.00;;;;;;5076693;28;20478;-68
2022/05/10 05:25:42;;;;;;;4.75;3.00;;;14.30;68.90;;;;;;5077940;28;20052;-68
2022/05/10 05:28:48;;;;;;;8.05;4.13;;;14.30;68.90;;;;;;5080084;28;20036;-67
2022/05/10 05:31:54;;;;;;;7.15;3.38;;;14.30;69.00;;;;;;5080155;28;20024;-66
2022/05/10 05:35:00;;;;;;;4.82;2.72;;;14.30;69.20;;;;;;5084132;28;20028;-66
2022/05/10 05:38:06;;;;;;;5.82;2.92;;;14.20;69.40;;;;;;5084286;28;20728;-67
2022/05/10 05:41:12;;;;;;;2.55;2.35;;;14.20;69.60;;;;;;5085117;28;20013;-67
2022/05/10 05:44:19;;;;;;;4.57;2.50;;;14.20;69.70;;;;;;5082539;28;20036;-67
2022/05/10 05:47:25;;;;;;;5.07;2.90;;;14.20;69.90;;;;;;5084180;28;20345;-66
2022/05/10 05:50:31;;;;;;;6.47;3.33;;;14.20;70.20;;;;;;5085158;28;20021;-66
2022/05/10 05:53:37;;;;;;;9.63;4.22;;;14.20;70.60;;;;;;5084614;28;20012;-67
2022/05/10 05:56:43;;;;;;;9.55;3.15;;;14.20;70.80;;;;;;5084062;28;20032;-68
2022/05/10 05:59:49;;;;;;;8.45;2.70;;;14.20;71.10;;;;;;5085361;28;20016;-67
2022/05/10 06:02:55;;;;;;;5.60;2.70;;;14.20;71.40;;;;;;5080466;28;20605;-67
2022/05/10 06:06:01;;;;;;;8.10;4.07;;;14.20;71.60;;;;;;5082506;28;20423;-68
2022/05/10 06:09:07;;;;;;;12.27;4.43;;;14.20;71.80;;;;;;5086657;28;20031;-67
2022/05/10 06:12:13;;;;;;;8.80;2.80;;;14.20;72.00;;;;;;5083251;28;20020;-68
2022/05/10 06:15:19;;;;;;;5.38;3.88;;;14.30;72.30;;;;;;5083728;28;20022;-69
2022/05/10 06:18:25;;;;;;;10.88;3.95;;;14.30;72.60;;;;;;5087440;28;20055;-67
2022/05/10 06:21:32;;;;;;;17.02;4.55;;;14.30;72.80;;;;;;5078685;28;20036;-67
2022/05/10 06:24:18;;;;;;;;;;;14.30;73.20;;;;;;5080547;28;20395;-67
2022/05/10 06:27:24;;;;;;;10.50;4.97;;;14.30;73.40;;;;;;5085998;28;19908;-68
2022/05/10 06:30:30;;;;;;;17.50;5.85;;;14.30;73.90;;;;;;5081021;28;20020;-67
2022/05/10 06:33:36;;;;;;;15.27;5.32;;;14.30;74.10;;;;;;5082793;28;20494;-69
2022/05/10 06:36:43;;;;;;;12.18;5.68;;;14.30;74.40;;;;;;5083521;28;20475;-69
2022/05/10 06:39:49;;;;;;;10.55;5.03;;;14.40;74.80;;;;;;5080726;28;20076;-68
2022/05/10 06:42:55;;;;;;;11.50;3.97;;;14.40;75.30;;;;;;5082813;28;20028;-68
2022/05/10 06:46:01;;;;;;;12.82;5.18;;;14.40;75.60;;;;;;5081349;28;20051;-67
2022/05/10 06:49:09;;;;;;;8.95;3.50;;;14.50;76.10;;;;;;5085506;28;20024;-68
2022/05/10 06:52:15;;;;;;;12.48;4.53;;;14.50;76.60;;;;;;5084467;28;20060;-67
2022/05/10 06:55:23;;;;;;;9.82;4.65;;;14.50;77.00;;;;;;5080130;28;20020;-68
2022/05/10 06:58:29;;;;;;;10.45;4.25;;;14.60;77.40;;;;;;5085772;28;20951;-69
2022/05/10 07:01:35;;;;;;;6.97;3.88;;;14.60;77.90;;;;;;5079905;28;20139;-70
2022/05/10 07:04:41;;;;;;;12.10;4.35;;;14.60;78.30;;;;;;5082412;28;20032;-68
2022/05/10 07:07:48;;;;;;;10.40;4.25;;;14.70;78.70;;;;;;5085710;28;20032;-69
2022/05/10 07:10:54;;;;;;;7.47;3.60;;;14.70;78.90;;;;;;5081251;28;20024;-69
2022/05/10 07:14:00;;;;;;;10.55;4.05;;;14.80;79.80;;;;;;5083471;28;20020;-69
2022/05/10 07:17:06;;;;;;;12.48;5.15;;;14.80;79.50;;;;;;5082645;28;20027;-67
2022/05/10 07:20:12;;;;;;;10.90;3.42;;;14.80;79.80;;;;;;5081871;28;20078;-69
2022/05/10 07:23:18;;;;;;;6.95;3.13;;;14.90;80.10;;;;;;5081191;28;20028;-70
2022/05/10 07:26:24;;;;;;;7.30;2.63;;;14.90;80.40;;;;;;5079413;28;20464;-70
2022/05/10 07:29:30;;;;;;;6.70;2.30;;;15.00;80.80;;;;;;5085037;28;20057;-68
2022/05/10 07:32:36;;;;;;;6.75;2.20;;;15.10;81.10;;;;;;5080746;28;20054;-70
2022/05/10 07:39:06;;;;;;;3.50;1.40;;;15.10;81.70;;;;;;5081301;28;20047;-67
2022/05/10 07:42:12;;;;;;;5.03;2.00;;;15.20;82.00;;;;;;5078928;28;20031;-69
2022/05/10 07:45:18;;;;;;;4.03;2.58;;;15.20;82.20;;;;;;5081992;28;20035;-69
2022/05/10 07:48:24;;;;;;;8.57;2.72;;;15.30;82.30;;;;;;5081897;28;20671;-70
2022/05/10 07:51:30;;;;;;;6.28;1.60;;;15.30;82.40;;;;;;5084421;28;20074;-69
2022/05/10 07:54:37;;;;;;;5.28;1.92;;;15.40;82.50;;;;;;5081655;28;20031;-69
2022/05/10 07:57:43;;;;;;;5.05;1.83;;;15.50;82.60;;;;;;5078217;28;20020;-68
2022/05/10 08:00:29;;;;;;;;;;;15.50;82.60;;;;;;5079097;28;20039;-70
2022/05/10 08:03:35;;;;;;;5.75;2.47;;;15.60;82.60;;;;;;5082547;28;19922;-69
2022/05/10 08:06:41;;;;;;;2.40;1.38;;;15.60;82.60;;;;;;5075994;28;20024;-68
2022/05/10 08:09:47;;;;;;;3.28;1.10;;;15.60;82.60;;;;;;5081798;28;20159;-70
2022/05/10 08:12:54;;;;;;;3.13;1.48;;;15.70;82.70;;;;;;5085721;28;20750;-70
2022/05/10 08:16:00;;;;;;;4.38;1.13;;;15.80;82.70;;;;;;5084213;28;20031;-69
2022/05/10 08:19:06;;;;;;;6.00;1.35;;;15.80;82.60;;;;;;5077407;28;20034;-69
2022/05/10 08:22:12;;;;;;;8.63;1.75;;;15.80;82.50;;;;;;5080173;28;20385;-69
2022/05/10 08:25:18;;;;;;;3.38;1.63;;;15.90;82.40;;;;;;5080483;28;20039;-68
2022/05/10 08:28:24;;;;;;;3.97;2.20;;;15.90;82.30;;;;;;5083598;28;20020;-70
2022/05/10 08:31:30;;;;;;;5.40;2.05;;;16.00;82.30;;;;;;5078997;28;20056;-67
2022/05/10 08:34:37;;;;;;;2.83;1.75;;;16.00;82.20;;;;;;5083367;28;20043;-70
2022/05/10 08:37:43;;;;;;;4.22;2.15;;;16.10;82.30;;;;;;5081353;28;20103;-69
2022/05/10 08:40:52;;;;;;;8.18;2.17;;;16.10;82.20;;;;;;5082909;28;20109;-69
2022/05/10 08:43:58;;;;;;;4.30;2.55;;;16.20;82.20;;;;;;5071615;28;20140;-67
2022/05/10 08:47:16;;;;;;;4.47;1.45;;;16.20;82.10;;;;;;5078172;28;20028;-70
2022/05/10 08:50:25;;;;;;;5.13;1.27;;;16.20;82.00;;;;;;5080551;28;20028;-68
2022/05/10 08:53:32;;;;;;;6.22;2.08;;;16.30;82.00;;;;;;5080924;28;20052;-70
2022/05/10 08:56:38;;;;;;;8.30;1.60;;;16.40;81.80;;;;;;5079143;28;20553;-70
2022/05/10 08:59:07;;;;;;;5.95;0.90;;;16.40;81.70;;;;;;5079280;28;20029;-68
2022/05/10 09:02:16;;;;;;;3.20;1.15;;;16.40;81.50;;;;;;5079921;28;20023;-70
2022/05/10 09:05:41;;;;;;;3.05;1.38;;;16.50;81.40;;;;;;5077782;28;20402;-68
2022/05/10 09:08:42;;;;;;;6.03;1.73;;;16.50;81.30;;;;;;5084723;28;20383;-68
2022/05/10 09:11:48;;;;;;;3.42;1.10;;;16.60;81.20;;;;;;5085079;28;20031;-70
2022/05/10 09:14:54;;;;;;;3.80;0.90;;;16.60;80.90;;;;;;5084426;28;20151;-70
2022/05/10 09:18:00;;;;;;;5.60;1.05;;;16.70;80.70;;;;;;5082158;28;20020;-68
2022/05/10 09:21:12;;;;;;;2.45;0.55;;;16.70;80.40;;;;;;5084513;28;20087;-69
2022/05/10 09:24:04;;;;;;;4.03;1.10;;;16.70;80.10;;;;;;5085592;28;20044;-69
2022/05/10 09:27:16;;;;;;;3.95;0.88;;;16.80;79.80;;;;;;5085529;28;20099;-67
2022/05/10 09:30:03;;;;;;;1.33;0.88;;;16.80;79.60;;;;;;5088010;28;20020;-68
2022/05/10 09:36:34;;;;;;;6.30;1.23;;;16.90;79.00;;;;;;5082025;28;20528;-68
2022/05/10 09:39:40;;;;;;;4.20;1.40;;;17.00;78.70;;;;;;5085518;28;20016;-67
2022/05/10 09:42:49;;;;;;;5.63;1.35;;;17.00;78.30;;;;;;5086254;28;20164;-67
2022/05/10 09:45:55;;;;;;;4.60;1.60;;;17.00;78.00;;;;;;5084580;28;20028;-68
2022/05/10 09:49:01;;;;;;;7.25;1.75;;;17.00;77.90;;;;;;5087256;28;20474;-69
2022/05/10 09:52:16;;;;;;;4.85;1.00;;;17.10;78.00;;;;;;5084124;28;20027;-68
2022/05/10 09:55:23;;;;;;;6.60;1.30;;;17.10;77.90;;;;;;5084080;28;20036;-69
2022/05/10 09:58:34;;;;;;;4.53;1.48;;;17.20;77.90;;;;;;5083880;28;20032;-68
2022/05/10 10:01:56;;;;;;;4.05;1.13;;;17.30;78.10;;;;;;5083237;28;20024;-69
2022/05/10 10:05:02;;;;;;;4.55;1.60;;;17.30;78.10;;;;;;5082389;28;20039;-69
2022/05/10 10:08:09;;;;;;;5.38;0.98;;;17.40;78.20;;;;;;5084905;28;20020;-69
2022/05/10 10:10:55;;;;;;;;;;;17.40;78.10;;;;;;5081033;28;20436;-69
2022/05/10 10:14:10;;;;;;;3.40;0.70;;;17.50;77.90;;;;;;5085290;28;19904;-69
2022/05/10 10:16:43;;;;;;;4.28;1.00;;;17.50;77.70;;;;;;5085589;28;20040;-69
2022/05/10 10:19:57;;;;;;;3.78;1.27;;;17.60;77.60;;;;;;5085611;28;20487;-67
2022/05/10 10:23:03;;;;;;;3.97;0.60;;;17.70;77.50;;;;;;5081516;28;20035;-67
2022/05/10 10:26:12;;;;;;;4.72;1.20;;;17.70;77.30;;;;;;5081616;28;20012;-70
2022/05/10 10:29:19;;;;;;;2.60;0.80;;;17.80;77.10;;;;;;5082480;28;20036;-68
2022/05/10 10:32:11;;;;;;;;;;;17.80;76.90;;;;;;5080121;28;20046;-69
2022/05/10 10:35:04;;;;;;;3.88;0.50;;;17.90;76.90;;;;;;5086445;28;19908;-71
2022/05/10 10:38:19;;;;;;;6.97;0.88;;;18.00;76.80;;;;;;5082992;28;20252;-69
2022/05/10 10:41:25;;;;;;;3.30;0.70;;;18.10;76.60;;;;;;5077620;28;20032;-69
2022/05/10 10:43:58;;;;;;;4.55;1.08;;;18.10;76.40;;;;;;5080427;28;20521;-68
2022/05/10 10:46:28;;;;;;;5.53;0.80;;;18.10;76.20;;;;;;5081762;28;20040;-68
2022/05/10 10:49:43;;;;;;;4.65;0.73;;;18.20;75.90;;;;;;5084023;28;20445;-70
2022/05/10 10:52:49;;;;;;;0.70;0.30;;;18.20;75.60;;;;;;5080460;28;21012;-68
2022/05/10 10:55:41;;;;;;;1.67;0.55;;;18.30;75.30;;;;;;5079563;28;20012;-70
2022/05/10 10:58:33;;;;;;;7.00;0.75;;;18.30;75.00;;;;;;5084432;28;20016;-69
2022/05/10 11:01:25;;;;;;;2.20;0.50;;;18.40;75.00;;;;;;5087896;28;20494;-70
2022/05/10 11:04:15;;;;;;;1.65;0.50;;;18.40;75.00;;;;;;5084605;28;20047;-68
2022/05/10 11:07:18;;;;;;;2.40;0.77;;;18.40;74.70;;;;;;5069183;28;20032;-70
2022/05/10 11:10:13;;;;;;;3.90;0.80;;;18.40;74.40;;;;;;5080624;28;20032;-70
2022/05/10 11:13:05;;;;;;;3.17;0.60;;;18.50;74.30;;;;;;5082899;28;20034;-70
2022/05/10 11:16:14;;;;;;;0.52;0.40;;;18.60;74.10;;;;;;5071104;28;20058;-68
2022/05/10 11:19:06;;;;;;;5.78;1.15;;;18.60;73.40;;;;;;5080118;28;20384;-69
2022/05/10 11:21:57;;;;;;;3.97;0.52;;;18.70;73.10;;;;;;5084080;28;20447;-67
2022/05/10 11:24:43;;;;;;;4.13;0.93;;;18.70;73.00;;;;;;5079875;28;20037;-70
2022/05/10 11:27:22;;;;;;;3.90;1.02;;;18.80;72.70;;;;;;5081946;28;20088;-67
2022/05/10 11:30:30;;;;;;;2.97;0.60;;;18.80;72.50;;;;;;5084994;28;20483;-67
2022/05/10 11:33:27;;;;;;;3.15;1.55;;;18.80;72.30;;;;;;5078924;28;20021;-66
2022/05/10 11:35:57;;;;;;;2.40;0.52;;;18.90;71.80;;;;;;5078619;28;20043;-70
2022/05/10 11:38:47;;;;;;;3.45;0.52;;;18.90;71.50;;;;;;5082827;28;20012;-70
2022/05/10 11:41:28;;;;;;;3.35;1.15;;;18.90;71.40;;;;;;5081855;28;20054;-68
2022/05/10 11:44:13;;;;;;;6.18;0.70;;;19.00;71.50;;;;;;5080881;28;20028;-67
2022/05/10 11:46:58;;;;;;;2.00;0.43;;;19.00;71.50;;;;;;5082451;28;20413;-70
2022/05/10 11:49:52;;;;;;;3.95;0.50;;;19.10;71.40;;;;;;5079621;28;20085;-68
2022/05/10 11:52:37;;;;;;;2.65;0.75;;;19.10;71.10;;;;;;5082429;28;20530;-69
2022/05/10 11:55:36;;;;;;;4.53;0.82;;;19.10;70.60;;;;;;5083748;28;20052;-69
2022/05/10 11:58:07;;;;;;;2.15;0.65;;;19.10;70.40;;;;;;5081011;28;20581;-68
2022/05/10 12:00:35;;;;;;;0.65;0.50;;;19.20;70.50;;;;;;5080761;28;20024;-70
2022/05/10 12:03:31;;;;;;;4.28;0.85;;;19.20;70.50;;;;;;5082866;28;20489;-67
2022/05/10 12:06:23;;;;;;;3.80;1.05;;;19.30;70.50;;;;;;5084330;28;20024;-70
2022/05/10 12:08:55;;;;;;;4.72;0.60;;;19.30;70.10;;;;;;5083884;28;20024;-69
2022/05/10 12:11:31;;;;;;;2.35;0.40;;;19.30;69.80;;;;;;5081473;28;20526;-69
2022/05/10 12:22:54;;;;;;;1.38;0.70;;;19.40;69.70;;;;;;5080834;28;20039;-69
2022/05/10 12:25:53;;;;;;;1.17;0.57;;;19.40;69.70;;;;;;5081826;28;20020;-67
2022/05/10 12:28:44;;;;;;;6.38;0.98;;;19.40;69.30;;;;;;5077602;28;20059;-70
2022/05/10 12:31:32;;;;;;;2.92;0.55;;;19.50;69.30;;;;;;5079807;28;20074;-68
2022/05/10 12:33:59;;;;;;;3.83;0.50;;;19.50;69.20;;;;;;5069791;28;20038;-70
2022/05/10 12:36:38;;;;;;;2.25;0.60;;;19.50;69.00;;;;;;5084868;28;20043;-69
2022/05/10 12:39:30;;;;;;;1.90;0.50;;;19.50;68.80;;;;;;5082132;28;20039;-69
2022/05/10 12:42:00;;;;;;;6.55;0.60;;;19.50;68.70;;;;;;5078019;28;20071;-68
2022/05/10 12:44:43;;;;;;;1.95;0.60;;;19.60;68.60;;;;;;5084781;28;20120;-71
2022/05/10 12:47:23;;;;;;;1.98;0.52;;;19.60;68.70;;;;;;5080837;28;20017;-67
2022/05/10 12:50:19;;;;;;;2.15;0.98;;;19.60;68.50;;;;;;5081033;28;20055;-70
2022/05/10 12:52:49;;;;;;;4.05;0.55;;;19.60;68.50;;;;;;5078716;28;20126;-68
2022/05/10 12:55:25;;;;;;;3.33;0.93;;;19.70;68.50;;;;;;5079187;28;20055;-70
2022/05/10 12:57:55;;;;;;;2.60;0.50;;;19.70;68.20;;;;;;5083836;28;20036;-70
2022/05/10 13:00:33;;;;;;;1.30;0.65;;;19.70;68.10;;;;;;5082349;28;20054;-70
2022/05/10 13:03:12;;;;;;;2.38;0.40;;;19.80;68.00;;;;;;5077259;28;20028;-67
2022/05/10 13:05:59;;;;;;;5.10;1.05;;;19.80;68.00;;;;;;5082108;28;20111;-67
2022/05/10 13:09:04;;;;;;;2.60;0.63;;;19.80;68.10;;;;;;5083369;28;20030;-69
2022/05/10 13:12:00;;;;;;;5.18;0.73;;;19.80;67.90;;;;;;5082865;28;20039;-69
2022/05/10 13:14:31;;;;;;;4.45;0.57;;;19.80;67.80;;;;;;5073119;28;20035;-67
2022/05/10 13:16:59;;;;;;;5.18;0.93;;;19.90;67.90;;;;;;5077816;28;20025;-69
2022/05/10 13:19:28;;;;;;;4.97;0.70;;;19.90;67.90;;;;;;5080195;28;20116;-69
2022/05/10 13:21:55;;;;;;;10.40;1.83;;;19.80;68.20;;;;;;5079483;28;20016;-71
2022/05/10 13:24:23;;;;;;;3.70;1.05;;;19.90;68.20;;;;;;5082599;28;20020;-68
2022/05/10 13:26:53;;;;;;;3.47;0.40;;;19.90;68.00;;;;;;5080000;28;20013;-70
2022/05/10 13:29:20;;;;;;;3.33;1.02;;;19.90;67.70;;;;;;5082538;28;20019;-67
2022/05/10 13:31:46;;;;;;;3.70;0.68;;;19.90;67.40;;;;;;5076876;28;20020;-68
2022/05/10 13:34:17;;;;;;;3.05;0.40;;;19.90;67.30;;;;;;5081475;28;20056;-71
2022/05/10 13:36:52;;;;;;;1.27;0.30;;;19.90;67.20;;;;;;5080999;28;20043;-68
2022/05/10 13:39:22;;;;;;;;;;;19.90;67.10;;;;;;5077431;28;20019;-70
2022/05/10 13:41:49;;;;;;;4.00;0.68;;;19.90;67.20;;;;;;5077756;28;19908;-68
2022/05/10 13:44:20;;;;;;;3.97;0.45;;;19.80;67.10;;;;;;5083643;28;20016;-71
2022/05/10 13:46:50;;;;;;;1.70;0.50;;;19.80;67.20;;;;;;5078395;28;20035;-68
2022/05/10 13:49:26;;;;;;;2.53;0.73;;;19.80;67.20;;;;;;5077687;28;20123;-69
2022/05/10 13:51:59;;;;;;;2.60;0.35;;;19.80;67.40;;;;;;5073751;28;20519;-72
2022/05/10 13:54:55;;;;;;;3.50;0.60;;;19.80;67.40;;;;;;5084357;28;20024;-68
2022/05/10 13:57:31;;;;;;;2.92;0.65;;;19.80;67.40;;;;;;5084504;28;20402;-70
2022/05/10 14:00:04;;;;;;;3.95;1.10;;;19.80;67.40;;;;;;5087223;28;20463;-72
2022/05/10 14:02:32;;;;;;;1.00;0.45;;;19.80;67.50;;;;;;5086338;28;20074;-70
2022/05/10 14:04:59;;;;;;;3.10;0.52;;;19.80;67.70;;;;;;5078429;28;20021;-69
2022/05/10 14:07:27;;;;;;;2.60;0.73;;;19.80;67.80;;;;;;5086182;28;20406;-70
2022/05/10 14:09:55;;;;;;;4.50;0.80;;;19.70;67.70;;;;;;5084180;28;20463;-71
2022/05/10 14:12:50;;;;;;;2.90;0.85;;;19.70;67.90;;;;;;5085901;28;20032;-70
2022/05/10 14:15:18;;;;;;;0.65;0.52;;;19.70;67.90;;;;;;5087486;28;20032;-71
2022/05/10 14:18:04;;;;;;;1.00;0.57;;;19.70;67.90;;;;;;5084201;28;20029;-71
2022/05/10 14:20:34;;;;;;;4.15;0.70;;;19.70;68.00;;;;;;5085160;28;20105;-71
2022/05/10 14:23:07;;;;;;;2.17;0.75;;;19.70;68.10;;;;;;5081483;28;20392;-70
2022/05/10 14:25:36;;;;;;;5.63;0.90;;;19.70;68.10;;;;;;5083444;28;20387;-68
2022/05/10 14:28:18;;;;;;;3.28;1.05;;;19.70;68.10;;;;;;5082924;28;20020;-70
2022/05/10 14:30:49;;;;;;;6.50;0.52;;;19.70;68.10;;;;;;5078599;28;20039;-71
2022/05/10 14:33:34;;;;;;;1.20;0.55;;;19.60;68.00;;;;;;5083585;28;20050;-71
2022/05/10 14:36:04;;;;;;;3.28;1.02;;;19.60;68.20;;;;;;5085588;28;20023;-70
2022/05/10 14:38:32;;;;;;;2.53;0.70;;;19.50;68.20;;;;;;5083033;28;20111;-70
2022/05/10 14:40:59;;;;;;;3.90;1.05;;;19.60;68.30;;;;;;5082446;28;20028;-69
2022/05/10 14:43:35;;;;;;;1.88;0.77;;;19.50;68.40;;;;;;5082872;28;20155;-71
2022/05/10 14:46:32;;;;;;;1.77;1.17;;;19.50;68.50;;;;;;5086302;28;20558;-70